createdAt,value
2018-09-04T00:01:57.344Z,99.90
2018-09-04T00:04:01.921Z,99.90
2018-09-04T00:06:06.465Z,99.90
2018-09-04T00:08:10.556Z,99.80
2018-09-04T00:10:15.645Z,99.90
2018-09-04T00:12:19.730Z,99.90
2018-09-04T00:14:24.079Z,99.90
2018-09-04T00:16:28.489Z,99.80
2018-09-04T00:18:33.060Z,99.90
2018-09-04T00:20:37.193Z,99.90
2018-09-04T00:22:41.270Z,99.90
2018-09-04T00:24:45.434Z,99.90
2018-09-04T00:26:49.448Z,99.90
2018-09-04T00:28:55.078Z,99.90
2018-09-04T00:31:00.803Z,99.90
2018-09-04T00:33:05.345Z,99.90
2018-09-04T00:35:09.900Z,99.90
2018-09-04T00:37:14.594Z,99.90
2018-09-04T00:39:18.652Z,99.90
2018-09-04T00:41:23.076Z,99.90
2018-09-04T00:43:27.341Z,99.90
2018-09-04T00:45:31.521Z,99.90
2018-09-04T00:47:35.739Z,99.90
2018-09-04T00:49:39.902Z,99.90
2018-09-04T00:51:43.944Z,99.90
2018-09-04T00:53:48.421Z,99.90
2018-09-04T00:55:52.700Z,99.90
2018-09-04T00:57:57.172Z,99.90
2018-09-04T01:00:01.463Z,99.90
2018-09-04T01:02:05.585Z,99.90
2018-09-04T01:04:09.705Z,99.90
2018-09-04T01:06:13.769Z,99.90
2018-09-04T01:08:17.813Z,99.90
2018-09-04T01:10:22.054Z,99.90
2018-09-04T01:12:26.364Z,99.90
2018-09-04T01:14:31.330Z,99.90
2018-09-04T01:16:35.504Z,99.90
2018-09-04T01:18:40.843Z,99.90
2018-09-04T01:20:44.894Z,99.90
2018-09-04T04:59:02.610Z,99.90
2018-09-04T05:01:30.980Z,99.90
2018-09-04T05:03:34.995Z,99.90
2018-09-04T05:05:39.116Z,99.90
2018-09-04T05:07:43.006Z,99.90
2018-09-04T05:09:47.425Z,99.90
2018-09-04T05:11:52.220Z,99.90
2018-09-04T05:13:56.710Z,99.90
2018-09-04T05:16:00.814Z,99.90
2018-09-04T05:18:04.932Z,99.90
2018-09-04T05:20:10.759Z,99.90
2018-09-04T05:22:16.054Z,99.90
2018-09-04T05:24:21.185Z,99.90
2018-09-04T05:26:25.568Z,99.90
2018-09-04T05:28:29.624Z,99.90
2018-09-04T05:30:33.667Z,99.90
2018-09-04T05:32:43.228Z,99.90
2018-09-04T05:34:47.203Z,99.90
2018-09-04T05:36:51.190Z,99.90
2018-09-04T05:38:55.275Z,99.90
2018-09-04T05:40:59.565Z,99.90
2018-09-04T05:43:05.250Z,99.90
2018-09-04T05:45:12.736Z,99.90
2018-09-04T05:47:16.696Z,99.90
2018-09-04T05:49:23.410Z,99.90
2018-09-04T05:51:28.160Z,99.90
2018-09-04T05:53:32.623Z,99.90
2018-09-04T05:55:37.609Z,99.90
2018-09-04T05:57:42.117Z,99.90
2018-09-04T05:59:46.160Z,99.90
2018-09-04T06:01:50.108Z,99.90
2018-09-04T06:03:54.839Z,99.90
2018-09-04T06:05:58.700Z,99.90
2018-09-04T06:08:04.113Z,99.90
2018-09-04T06:10:08.323Z,99.90
2018-09-04T06:12:15.647Z,99.90
2018-09-04T06:14:19.648Z,99.90
2018-09-04T06:16:23.524Z,99.90
2018-09-04T06:18:27.480Z,99.90
2018-09-04T06:20:32.363Z,99.90
2018-09-04T06:22:36.625Z,99.90
2018-09-04T06:24:43.201Z,99.90
2018-09-04T06:26:47.203Z,99.90
2018-09-04T06:28:51.336Z,99.90
2018-09-04T06:30:55.279Z,99.90
2018-09-04T06:32:59.347Z,99.90
2018-09-04T06:35:05.081Z,99.90
2018-09-04T06:37:09.528Z,99.90
2018-09-04T06:39:18.065Z,99.90
2018-09-04T06:41:26.923Z,99.90
2018-09-04T06:43:31.209Z,99.90
2018-09-04T06:45:35.597Z,99.90
2018-09-04T06:47:39.937Z,99.90
2018-09-04T06:49:45.184Z,99.90
2018-09-04T06:51:49.116Z,99.90
2018-09-04T06:53:53.216Z,99.90
2018-09-04T06:55:57.095Z,99.90
2018-09-04T06:58:01.419Z,99.90
2018-09-04T07:00:07.619Z,99.90
2018-09-04T07:02:11.812Z,99.90
2018-09-04T07:04:15.668Z,99.90
2018-09-04T07:06:19.628Z,99.90
2018-09-04T07:08:23.514Z,99.90
2018-09-04T07:10:27.635Z,99.90
2018-09-04T07:12:32.125Z,99.90
2018-09-04T07:14:36.541Z,99.90
2018-09-04T07:16:40.978Z,99.90
2018-09-04T07:18:45.033Z,99.90
2018-09-04T07:20:49.098Z,99.90
2018-09-04T07:22:53.034Z,99.90
2018-09-04T07:24:57.048Z,99.90
2018-09-04T07:27:02.010Z,99.90
2018-09-04T07:29:07.326Z,99.90
2018-09-04T07:31:12.158Z,99.90
2018-09-04T07:33:16.075Z,99.90
2018-09-04T07:35:20.085Z,99.90
2018-09-04T07:37:23.989Z,99.90
2018-09-04T07:39:27.792Z,99.90
2018-09-04T07:41:32.728Z,99.90
2018-09-04T07:43:36.774Z,99.90
2018-09-04T07:45:40.911Z,99.90
2018-09-04T07:47:52.309Z,99.90
2018-09-04T15:58:38.880Z,96.40
2018-09-04T16:00:42.935Z,95.90
2018-09-04T16:02:47.037Z,96.00
2018-09-04T16:04:50.970Z,96.10
2018-09-04T16:06:55.503Z,96.10
2018-09-04T16:09:00.187Z,96.00
2018-09-04T16:11:04.194Z,96.00
2018-09-04T16:13:08.196Z,96.00
2018-09-04T16:15:12.078Z,95.90
2018-09-04T16:17:15.976Z,95.80
2018-09-04T16:19:19.830Z,95.80
2018-09-04T16:21:23.744Z,95.90
2018-09-04T16:23:31.386Z,95.90
2018-09-04T16:25:35.477Z,95.90
2018-09-04T16:27:39.466Z,96.00
2018-09-04T16:29:45.451Z,96.00
2018-09-04T16:31:49.384Z,95.90
2018-09-04T16:33:53.732Z,95.90
2018-09-04T16:36:00.522Z,95.80
2018-09-04T16:38:04.692Z,95.70
2018-09-04T16:40:08.586Z,95.80
2018-09-04T16:42:12.489Z,95.80
2018-09-04T16:44:16.597Z,96.20
2018-09-04T16:46:20.471Z,95.80
2018-09-04T16:48:24.497Z,95.80
2018-09-04T16:50:29.098Z,95.80
2018-09-04T16:52:33.289Z,95.70
2018-09-04T16:54:37.239Z,95.70
2018-09-04T16:56:41.196Z,95.70
2018-09-04T16:58:45.073Z,95.80
2018-09-04T17:00:49.036Z,95.70
2018-09-04T17:02:53.003Z,95.70
2018-09-04T17:04:58.885Z,95.70
2018-09-04T17:07:02.941Z,95.60
2018-09-04T17:09:07.242Z,95.70
2018-09-04T17:11:11.428Z,95.70
2018-09-04T17:13:15.440Z,95.60
2018-09-04T17:15:19.401Z,95.70
2018-09-04T17:17:23.291Z,95.70
2018-09-04T17:19:29.209Z,95.80
2018-09-04T17:21:33.990Z,95.80
2018-09-04T17:23:38.753Z,95.90
2018-09-04T17:25:42.877Z,96.00
2018-09-04T17:27:46.882Z,96.00
2018-09-04T17:29:50.877Z,96.00
2018-09-04T17:31:55.535Z,96.00
2018-09-04T17:34:01.557Z,96.10
2018-09-04T17:36:05.704Z,96.10
2018-09-04T17:38:09.795Z,96.20
2018-09-04T17:40:13.758Z,96.20
2018-09-04T17:42:17.803Z,96.30
2018-09-04T17:44:21.591Z,96.30
2018-09-04T17:46:26.512Z,96.30
2018-09-04T17:48:31.399Z,96.30
2018-09-04T17:50:35.793Z,95.90
2018-09-04T17:52:39.778Z,95.70
2018-09-04T17:54:43.819Z,96.00
2018-09-04T17:56:47.814Z,95.90
2018-09-04T17:58:51.853Z,96.00
2018-09-04T18:00:57.215Z,96.00
2018-09-04T18:03:02.405Z,96.00
2018-09-04T18:05:06.500Z,95.90
2018-09-04T18:07:10.371Z,95.80
2018-09-04T18:09:14.356Z,95.80
2018-09-04T18:11:18.272Z,95.30
2018-09-04T18:13:22.155Z,95.30
2018-09-04T18:15:27.405Z,95.20
2018-09-04T18:17:31.650Z,95.30
2018-09-04T18:19:36.189Z,95.50
2018-09-04T18:21:40.210Z,95.30
2018-09-04T18:23:44.094Z,95.30
2018-09-04T18:25:48.093Z,95.10
2018-09-04T18:27:51.987Z,95.20
2018-09-04T18:29:56.412Z,95.20
2018-09-04T18:32:00.778Z,95.30
2018-09-04T18:34:06.012Z,95.30
2018-09-04T18:36:09.897Z,95.30
2018-09-04T18:38:14.014Z,95.40
2018-09-04T18:40:18.001Z,95.40
2018-09-04T18:42:21.917Z,95.40
2018-09-04T18:44:27.260Z,95.40
2018-09-04T18:46:31.498Z,95.40
2018-09-04T18:48:35.738Z,95.40
2018-09-04T18:50:39.733Z,95.50
2018-09-04T18:52:43.629Z,95.50
2018-09-04T18:54:48.314Z,95.50
2018-09-04T18:56:52.223Z,95.60
2018-09-04T18:58:57.625Z,95.70
2018-09-04T19:01:02.111Z,95.70
2018-09-04T19:03:06.563Z,95.70
2018-09-04T19:05:10.566Z,95.80
2018-09-04T19:07:14.548Z,95.90
2018-09-04T19:09:18.419Z,95.90
2018-09-04T19:11:22.324Z,96.00
2018-09-04T19:13:28.077Z,96.20
2018-09-04T19:15:36.238Z,96.20
2018-09-04T19:17:40.196Z,96.30
2018-09-04T19:19:44.135Z,96.30
2018-09-04T19:21:48.084Z,96.30
2018-09-04T19:23:54.294Z,96.40
2018-09-04T19:25:58.839Z,96.30
2018-09-04T19:28:03.802Z,96.40
2018-09-04T19:30:08.102Z,96.70
2018-09-04T19:32:12.167Z,96.50
2018-09-04T19:34:16.113Z,96.50
2018-09-04T19:36:19.962Z,96.70
2018-09-04T19:38:24.237Z,96.70
2018-09-04T19:40:28.359Z,96.80
2018-09-04T19:42:32.757Z,96.90
2018-09-04T19:44:37.215Z,97.00
2018-09-04T19:46:56.233Z,97.20
2018-09-04T19:49:00.506Z,97.20
2018-09-04T19:51:04.841Z,97.30
2018-09-04T19:53:08.728Z,97.40
2018-09-04T19:55:18.442Z,97.40
2018-09-04T19:57:38.522Z,97.50
2018-09-04T19:59:43.269Z,97.50
2018-09-04T20:01:47.243Z,97.40
2018-09-04T20:03:51.495Z,97.60
2018-09-04T20:05:57.215Z,97.70
2018-09-04T20:08:01.900Z,98.00
2018-09-04T20:10:06.779Z,97.60
2018-09-04T20:12:10.675Z,97.70
2018-09-04T20:14:14.639Z,97.70
2018-09-04T20:16:18.757Z,97.80
2018-09-04T20:18:22.714Z,97.80
2018-09-04T20:20:28.591Z,97.80
2018-09-04T20:22:33.453Z,97.70
2018-09-04T20:24:37.606Z,97.80
2018-09-04T20:26:41.544Z,97.70
2018-09-04T20:28:45.975Z,97.80
2018-09-04T20:30:50.208Z,98.20
2018-09-04T20:32:54.683Z,97.90
2018-09-04T20:35:02.229Z,97.90
2018-09-04T20:37:10.035Z,97.90
2018-09-04T20:39:14.232Z,97.90
2018-09-04T20:41:18.651Z,97.90
2018-09-04T20:43:22.640Z,97.90
2018-09-04T20:45:27.749Z,97.90
2018-09-04T20:47:32.426Z,97.90
2018-09-04T20:49:37.256Z,97.80
2018-09-04T20:51:42.740Z,97.80
2018-09-04T20:53:46.686Z,97.80
2018-09-04T20:55:50.577Z,97.80
2018-09-04T20:58:05.894Z,97.80
2018-09-04T21:00:22.915Z,97.80
2018-09-04T21:02:38.077Z,97.80
2018-09-04T21:04:53.520Z,97.90
2018-09-04T21:06:58.336Z,97.90
2018-09-04T21:09:12.775Z,98.00
2018-09-04T21:11:16.635Z,98.10
2018-09-04T21:13:20.568Z,98.10
2018-09-04T21:15:24.440Z,98.20
2018-09-04T21:17:30.443Z,98.30
2018-09-04T21:19:34.683Z,98.30
2018-09-04T21:21:38.860Z,98.30
2018-09-04T21:23:43.227Z,98.40
2018-09-04T21:25:47.764Z,98.50
2018-09-04T21:27:51.633Z,98.50
2018-09-04T21:29:56.732Z,98.50
2018-09-04T21:32:01.491Z,98.50
2018-09-04T21:34:06.782Z,98.50
2018-09-04T21:36:10.826Z,98.60
2018-09-04T21:38:14.866Z,98.70
2018-09-04T21:40:18.758Z,98.70
2018-09-04T21:42:22.676Z,98.70
2018-09-04T21:44:28.882Z,98.70
2018-09-04T21:46:34.310Z,98.70
2018-09-04T21:48:38.617Z,98.80
2018-09-04T21:50:42.474Z,98.90
2018-09-04T21:52:47.312Z,99.00
2018-09-04T21:54:51.247Z,99.00
2018-09-04T21:56:55.477Z,99.00
2018-09-04T21:59:00.537Z,98.90
2018-09-04T22:01:04.900Z,98.90
2018-09-04T22:03:10.232Z,99.00
2018-09-04T22:05:14.145Z,99.00
2018-09-04T22:07:18.046Z,99.00
2018-09-04T22:09:21.910Z,99.00
2018-09-04T22:11:26.450Z,99.10
2018-09-04T22:13:31.583Z,99.10
2018-09-04T22:15:35.870Z,99.00
2018-09-04T22:17:39.971Z,99.10
2018-09-04T22:19:44.270Z,99.00
2018-09-04T22:21:49.711Z,99.20
2018-09-04T22:23:53.529Z,99.20
2018-09-04T22:26:00.785Z,99.30
2018-09-04T22:28:04.998Z,99.40
2018-09-04T22:30:09.027Z,99.30
2018-09-04T22:32:13.659Z,99.40
2018-09-04T22:34:17.557Z,99.40
2018-09-04T22:36:21.724Z,99.40
2018-09-04T22:38:26.484Z,99.50
2018-09-04T22:40:30.983Z,99.40
2018-09-04T22:42:35.540Z,99.40
2018-09-04T22:44:39.498Z,99.40
2018-09-04T22:46:43.877Z,99.40
2018-09-04T22:48:47.938Z,99.50
2018-09-04T22:51:01.641Z,99.60
2018-09-04T22:53:11.006Z,99.60
2018-09-04T22:55:15.444Z,99.60
2018-09-04T22:57:19.733Z,99.60
2018-09-04T22:59:28.196Z,99.70
2018-09-04T23:01:38.768Z,99.60
2018-09-04T23:03:43.592Z,99.60
2018-09-04T23:05:55.458Z,99.70
2018-09-04T23:07:59.516Z,99.70
2018-09-04T23:10:04.000Z,99.80
2018-09-04T23:12:08.143Z,99.60
2018-09-04T23:14:12.088Z,99.80
2018-09-04T23:16:16.097Z,99.90
2018-09-04T23:18:20.343Z,99.90
2018-09-04T23:20:25.910Z,99.90
2018-09-04T23:22:31.762Z,99.90
2018-09-04T23:24:36.431Z,99.90
2018-09-04T23:26:41.227Z,99.90
2018-09-04T23:28:45.173Z,99.90
2018-09-04T23:30:49.473Z,99.90
2018-09-04T23:32:53.552Z,99.90
2018-09-04T23:34:59.318Z,99.90
2018-09-04T23:37:03.794Z,99.90
2018-09-04T23:39:09.018Z,99.90
2018-09-04T23:41:13.014Z,99.90
2018-09-04T23:43:16.934Z,99.90
2018-09-04T23:45:20.765Z,99.90
2018-09-04T23:47:25.546Z,99.90
2018-09-04T23:49:29.796Z,99.90
2018-09-04T23:51:33.833Z,99.90
2018-09-04T23:53:37.955Z,99.90
2018-09-04T23:55:41.875Z,99.90
2018-09-04T23:57:45.729Z,99.90
2018-09-04T23:59:50.184Z,99.90
